Time;durP1;ratioP1;P1;durP2;ratioP2;P2;SDS_P1;SDS_P2;PMS_P1;PMS_P2;Temp;Humidity;BMP_temperature;BMP_pressure;BME280_temperature;BME280_humidity;BME280_pressure;Samples;Min_cycle;Max_cycle;Signal;HPM_P1;HPM_P2
2022/05/04 00:00:38;;;;;;;16.15;10.18;;;10.30;99.90;;;;;;4614541;28;9999793;-77
2022/05/04 00:03:04;;;;;;;23.52;10.32;;;10.30;99.90;;;;;;4954717;28;20065;-76
2022/05/04 00:05:31;;;;;;;18.90;10.43;;;10.30;99.90;;;;;;4959721;28;20481;-77
2022/05/04 00:07:56;;;;;;;18.17;10.30;;;10.30;99.90;;;;;;4961294;28;20391;-77
2022/05/04 00:10:22;;;;;;;18.00;10.45;;;10.30;99.90;;;;;;4951454;28;20045;-76
2022/05/04 00:12:48;;;;;;;18.38;10.18;;;10.30;99.90;;;;;;4957152;28;20031;-77
2022/05/04 00:15:14;;;;;;;15.93;10.38;;;10.30;99.90;;;;;;4964736;28;20106;-76
2022/05/04 00:17:39;;;;;;;18.58;9.75;;;10.20;99.90;;;;;;4964344;28;20680;-76
2022/05/04 00:20:06;;;;;;;16.30;10.07;;;10.20;99.90;;;;;;4965238;28;20019;-77
2022/05/04 00:22:31;;;;;;;21.80;10.75;;;10.20;99.90;;;;;;4964924;28;20054;-76
2022/05/04 00:24:57;;;;;;;19.83;10.27;;;10.10;99.90;;;;;;4959873;28;20058;-76
2022/05/04 00:27:24;;;;;;;16.27;9.77;;;10.10;99.90;;;;;;4952334;28;20085;-77
2022/05/04 00:29:50;;;;;;;17.38;10.32;;;10.10;99.90;;;;;;4955086;28;20475;-77
2022/05/04 00:32:17;;;;;;;20.10;10.50;;;10.10;99.90;;;;;;4963675;28;20467;-76
2022/05/04 00:34:43;;;;;;;17.58;9.88;;;10.10;99.90;;;;;;4966788;28;20042;-76
2022/05/04 00:37:08;;;;;;;16.90;10.02;;;10.00;99.90;;;;;;4964591;28;20480;-77
2022/05/04 00:39:35;;;;;;;15.88;9.82;;;10.00;99.90;;;;;;4966694;28;20438;-76
2022/05/04 00:42:11;;;;;;;16.45;9.80;;;10.10;99.90;;;;;;4952106;28;20137;-77
2022/05/04 00:44:38;;;;;;;15.98;9.63;;;10.00;99.90;;;;;;4965107;28;20117;-77
2022/05/04 00:47:04;;;;;;;15.50;9.93;;;10.00;99.90;;;;;;4975066;28;20054;-77
2022/05/04 00:49:30;;;;;;;14.57;9.77;;;10.00;99.90;;;;;;4955731;28;20566;-77
2022/05/04 00:51:56;;;;;;;16.52;10.60;;;10.00;99.90;;;;;;4957685;28;20027;-78
2022/05/04 00:54:22;;;;;;;17.83;10.35;;;10.00;99.90;;;;;;4959202;28;20098;-78
2022/05/04 00:56:48;;;;;;;21.85;10.32;;;10.00;99.90;;;;;;4963657;28;20042;-77
2022/05/04 00:59:14;;;;;;;13.30;9.50;;;9.90;99.90;;;;;;4952568;28;20031;-77
2022/05/04 01:01:40;;;;;;;17.23;10.75;;;9.90;99.90;;;;;;4960116;28;20031;-77
2022/05/04 01:04:06;;;;;;;19.00;10.35;;;9.90;99.90;;;;;;4961646;28;20411;-77
2022/05/04 01:06:33;;;;;;;18.38;10.55;;;9.90;99.90;;;;;;4964954;28;20030;-76
2022/05/04 01:08:59;;;;;;;16.95;11.27;;;9.90;99.90;;;;;;4967270;28;20028;-77
2022/05/04 01:11:24;;;;;;;14.70;9.82;;;9.80;99.90;;;;;;4956107;28;20030;-77
2022/05/04 01:13:59;;;;;;;19.10;10.52;;;9.80;99.90;;;;;;4958421;28;20532;-77
2022/05/04 01:16:25;;;;;;;19.88;10.20;;;9.70;99.90;;;;;;4960112;28;20023;-77
2022/05/04 01:18:51;;;;;;;15.98;9.75;;;9.70;99.90;;;;;;4961457;28;20023;-78
2022/05/04 01:21:16;;;;;;;19.23;10.80;;;9.70;99.90;;;;;;4957674;28;20034;-76
2022/05/04 01:23:43;;;;;;;21.83;11.07;;;9.60;99.90;;;;;;4961583;28;20047;-77
2022/05/04 01:26:08;;;;;;;19.38;10.95;;;9.60;99.90;;;;;;4958470;28;20046;-76
2022/05/04 01:28:34;;;;;;;17.02;10.45;;;9.60;99.90;;;;;;4959161;28;20022;-77
2022/05/04 01:31:00;;;;;;;22.48;11.55;;;9.60;99.90;;;;;;4949609;28;20086;-77
2022/05/04 01:33:25;;;;;;;20.77;11.63;;;9.60;99.90;;;;;;4958213;28;20071;-77
2022/05/04 01:35:51;;;;;;;21.98;11.45;;;9.60;99.90;;;;;;4966794;28;20088;-76
2022/05/04 01:38:17;;;;;;;21.70;12.70;;;9.60;99.90;;;;;;4960822;28;20110;-77
2022/05/04 01:40:42;;;;;;;20.00;12.27;;;9.60;99.90;;;;;;4964133;28;20502;-77
2022/05/04 01:43:08;;;;;;;18.10;11.15;;;9.70;99.90;;;;;;4965387;28;20058;-77
2022/05/04 01:45:33;;;;;;;21.05;12.02;;;9.60;99.90;;;;;;4960017;28;20026;-77
2022/05/04 01:47:59;;;;;;;20.67;11.90;;;9.70;99.90;;;;;;4965008;28;20038;-77
2022/05/04 01:50:24;;;;;;;17.58;11.07;;;9.70;99.90;;;;;;4957148;28;20035;-77
2022/05/04 01:52:50;;;;;;;19.60;11.82;;;9.70;99.90;;;;;;4955985;28;20023;-77
2022/05/04 01:55:17;;;;;;;19.00;11.38;;;9.70;99.90;;;;;;4959928;28;20039;-77
2022/05/04 01:57:42;;;;;;;19.80;11.38;;;9.70;99.90;;;;;;4957789;28;20117;-77
2022/05/04 02:00:09;;;;;;;18.58;11.73;;;9.70;99.90;;;;;;4955962;28;20472;-78
2022/05/04 02:02:35;;;;;;;20.40;11.40;;;9.60;99.90;;;;;;4960057;28;20031;-77
2022/05/04 02:05:02;;;;;;;17.50;11.50;;;9.70;99.90;;;;;;4961089;28;20019;-76
2022/05/04 02:07:28;;;;;;;18.88;11.25;;;9.60;99.90;;;;;;4956514;28;20112;-77
2022/05/04 02:09:54;;;;;;;17.88;11.23;;;9.70;99.90;;;;;;4955564;28;20038;-78
2022/05/04 02:12:20;;;;;;;22.27;11.85;;;9.70;99.90;;;;;;4948573;28;20172;-77
2022/05/04 02:14:46;;;;;;;18.50;11.25;;;9.70;99.90;;;;;;4963295;28;20106;-77
2022/05/04 02:17:11;;;;;;;16.80;11.63;;;9.70;99.90;;;;;;4964120;28;20023;-77
2022/05/04 02:19:37;;;;;;;23.85;11.88;;;9.70;99.90;;;;;;4953785;28;20114;-77
2022/05/04 02:22:02;;;;;;;22.90;12.23;;;9.70;99.90;;;;;;4956770;28;20026;-78
2022/05/04 02:24:28;;;;;;;19.10;12.23;;;9.70;99.90;;;;;;4963500;28;20038;-77
2022/05/04 02:26:54;;;;;;;19.15;11.85;;;9.70;99.90;;;;;;4965905;28;20030;-77
2022/05/04 02:29:19;;;;;;;21.52;11.85;;;9.70;99.90;;;;;;4965119;28;20026;-77
2022/05/04 02:31:45;;;;;;;20.65;11.68;;;9.60;99.90;;;;;;4959153;28;20117;-78
2022/05/04 02:34:10;;;;;;;20.08;12.20;;;9.60;99.90;;;;;;4956658;28;20038;-78
2022/05/04 02:39:21;;;;;;;16.30;12.00;;;9.60;99.90;;;;;;4959804;28;20595;-77
2022/05/04 02:41:48;;;;;;;23.92;12.55;;;9.60;99.90;;;;;;4959923;28;20042;-77
2022/05/04 02:44:14;;;;;;;19.67;12.32;;;9.60;99.90;;;;;;4957865;28;20027;-77
2022/05/04 02:46:40;;;;;;;20.23;11.88;;;9.60;99.90;;;;;;4963419;28;20039;-77
2022/05/04 02:49:06;;;;;;;24.13;12.07;;;9.60;99.90;;;;;;4965690;28;20050;-77
2022/05/04 02:51:31;;;;;;;21.02;12.35;;;9.60;99.90;;;;;;4961815;28;20035;-77
2022/05/04 02:53:57;;;;;;;22.00;11.50;;;9.70;99.90;;;;;;4956219;28;20039;-77
2022/05/04 02:56:22;;;;;;;23.63;11.88;;;9.70;99.90;;;;;;4959258;28;20042;-77
2022/05/04 02:58:51;;;;;;;20.65;12.25;;;9.60;99.90;;;;;;4958167;28;20442;-77
2022/05/04 03:04:06;;;;;;;16.42;11.63;;;9.70;99.90;;;;;;4963639;28;20438;-77
2022/05/04 03:06:35;;;;;;;16.88;10.90;;;9.70;99.90;;;;;;4964350;28;20041;-77
2022/05/04 03:09:02;;;;;;;19.38;11.43;;;9.70;99.90;;;;;;4957301;28;20034;-77
2022/05/04 03:14:12;;;;;;;21.50;10.82;;;9.70;99.90;;;;;;4957596;28;20085;-78
2022/05/04 03:16:39;;;;;;;19.40;11.75;;;9.70;99.90;;;;;;4960061;28;20042;-77
2022/05/04 03:19:05;;;;;;;23.90;11.35;;;9.70;99.90;;;;;;4957217;28;20022;-77
2022/05/04 03:21:32;;;;;;;22.70;11.40;;;9.70;99.90;;;;;;4959536;28;20414;-78
2022/05/04 03:23:57;;;;;;;21.48;11.63;;;9.70;99.90;;;;;;4957625;28;20058;-76
2022/05/04 03:26:24;;;;;;;20.30;11.27;;;9.70;99.90;;;;;;4962404;28;20328;-77
2022/05/04 03:28:50;;;;;;;18.65;11.10;;;9.70;99.90;;;;;;4963311;28;20510;-78
2022/05/04 03:31:17;;;;;;;20.27;10.68;;;9.70;99.90;;;;;;4956333;28;20118;-77
2022/05/04 03:33:42;;;;;;;23.20;11.50;;;9.70;99.90;;;;;;4958888;28;20474;-77
2022/05/04 03:36:08;;;;;;;19.88;11.25;;;9.70;99.90;;;;;;4967316;28;20023;-78
2022/05/04 03:38:34;;;;;;;19.48;11.40;;;9.70;99.90;;;;;;4961485;28;20453;-77
2022/05/04 03:40:59;;;;;;;20.60;11.40;;;9.60;99.90;;;;;;4952924;28;20019;-77
2022/05/04 03:43:25;;;;;;;21.38;11.30;;;9.60;99.90;;;;;;4957411;28;20053;-77
2022/05/04 03:45:51;;;;;;;27.52;13.27;;;9.60;99.90;;;;;;4967597;28;20026;-77
2022/05/04 03:48:16;;;;;;;20.17;13.27;;;9.60;99.90;;;;;;4963305;28;20473;-77
2022/05/04 03:50:44;;;;;;;21.00;12.60;;;9.50;99.90;;;;;;4957157;28;20016;-77
2022/05/04 03:53:10;;;;;;;19.50;12.95;;;9.60;99.90;;;;;;4963445;28;20035;-77
2022/05/04 03:55:36;;;;;;;20.88;13.10;;;9.60;99.90;;;;;;4956036;28;20034;-77
2022/05/04 03:58:02;;;;;;;24.85;14.23;;;9.60;99.90;;;;;;4960976;28;20724;-77
2022/05/04 04:00:28;;;;;;;23.45;13.02;;;9.60;99.90;;;;;;4955497;28;20034;-77
2022/05/04 04:02:53;;;;;;;25.05;13.27;;;9.60;99.90;;;;;;4955184;28;20027;-78
2022/05/04 04:05:19;;;;;;;23.17;13.50;;;9.60;99.90;;;;;;4955972;28;20026;-77
2022/05/04 04:07:45;;;;;;;23.75;13.40;;;9.60;99.90;;;;;;4958666;28;20506;-77
2022/05/04 04:10:10;;;;;;;22.65;12.73;;;9.60;99.90;;;;;;4956231;28;20435;-77
2022/05/04 04:12:36;;;;;;;22.25;11.95;;;9.60;99.90;;;;;;4953146;28;20027;-77
2022/05/04 04:15:02;;;;;;;23.45;12.68;;;9.60;99.90;;;;;;4960249;28;20439;-77
2022/05/04 04:17:29;;;;;;;23.65;12.95;;;9.60;99.90;;;;;;4958971;28;20031;-77
2022/05/04 04:22:39;;;;;;;17.38;11.63;;;9.60;99.90;;;;;;4948528;28;20042;-77
2022/05/04 04:25:05;;;;;;;23.80;12.65;;;9.60;99.90;;;;;;4961692;28;20473;-77
2022/05/04 04:27:32;;;;;;;17.75;11.00;;;9.70;99.90;;;;;;4959997;28;20065;-77
2022/05/04 04:29:58;;;;;;;22.10;12.45;;;9.70;99.90;;;;;;4957192;28;20027;-77
2022/05/04 04:32:24;;;;;;;19.52;12.30;;;9.60;99.90;;;;;;4966938;28;20086;-78
2022/05/04 04:34:50;;;;;;;21.08;12.73;;;9.70;99.90;;;;;;4961336;28;20034;-77
2022/05/04 04:37:16;;;;;;;19.10;12.88;;;9.70;99.90;;;;;;4962606;28;20039;-78
2022/05/04 04:39:42;;;;;;;18.92;12.32;;;9.70;99.90;;;;;;4956026;28;20023;-77
2022/05/04 04:42:08;;;;;;;20.67;12.15;;;9.70;99.90;;;;;;4960798;28;20030;-77
2022/05/04 04:44:34;;;;;;;20.85;12.57;;;9.70;99.90;;;;;;4962376;28;20078;-78
2022/05/04 04:46:59;;;;;;;18.13;12.23;;;9.70;99.90;;;;;;4949282;28;20572;-77
2022/05/04 04:49:25;;;;;;;26.65;12.40;;;9.70;99.90;;;;;;4961190;28;20050;-77
2022/05/04 04:51:51;;;;;;;19.67;11.57;;;9.70;99.90;;;;;;4962952;28;20038;-77
2022/05/04 04:54:17;;;;;;;18.80;11.35;;;9.70;99.90;;;;;;4968577;28;20023;-77
2022/05/04 04:56:42;;;;;;;22.75;12.10;;;9.70;99.90;;;;;;4962058;28;20395;-77
2022/05/04 04:59:08;;;;;;;17.45;11.10;;;9.70;99.90;;;;;;4961863;28;20165;-77
2022/05/04 05:01:34;;;;;;;16.40;10.70;;;9.80;99.90;;;;;;4957589;28;20027;-77
2022/05/04 05:04:00;;;;;;;22.75;10.63;;;9.90;99.90;;;;;;4958108;28;20485;-77
2022/05/04 05:06:26;;;;;;;19.15;11.38;;;9.90;99.90;;;;;;4963890;28;20258;-78
2022/05/04 05:08:51;;;;;;;24.00;11.93;;;9.90;99.90;;;;;;4966606;28;20034;-77
2022/05/04 05:11:17;;;;;;;20.50;12.40;;;9.90;99.90;;;;;;4961462;28;20127;-77
2022/05/04 05:16:27;;;;;;;21.15;11.88;;;9.90;99.90;;;;;;4960005;28;20038;-76
2022/05/04 05:18:53;;;;;;;23.05;12.90;;;10.00;99.90;;;;;;4965215;28;20035;-77
2022/05/04 05:21:19;;;;;;;20.80;12.13;;;10.00;99.90;;;;;;4964279;28;20031;-77
2022/05/04 05:23:45;;;;;;;18.60;11.95;;;10.00;99.90;;;;;;4963862;28;20019;-78
2022/05/04 05:26:10;;;;;;;20.63;12.77;;;10.00;99.90;;;;;;4963313;28;20111;-77
2022/05/04 05:28:36;;;;;;;19.92;12.70;;;10.10;99.90;;;;;;4965046;28;20552;-78
2022/05/04 05:31:02;;;;;;;20.75;11.70;;;10.10;99.90;;;;;;4954712;28;20058;-77
2022/05/04 05:33:28;;;;;;;23.98;12.77;;;10.20;99.90;;;;;;4965065;28;20059;-78
2022/05/04 05:35:53;;;;;;;23.67;12.65;;;10.20;99.90;;;;;;4961950;28;20054;-77
2022/05/04 05:38:20;;;;;;;22.83;12.73;;;10.30;99.90;;;;;;4962883;28;20019;-79
2022/05/04 05:40:47;;;;;;;26.85;14.32;;;10.30;99.90;;;;;;4962058;28;20035;-78
2022/05/04 05:43:12;;;;;;;20.85;12.45;;;10.30;99.90;;;;;;4946608;28;20039;-77
2022/05/04 05:45:38;;;;;;;23.05;14.55;;;10.30;99.90;;;;;;4959922;28;20031;-77
2022/05/04 05:48:04;;;;;;;21.25;12.95;;;10.30;99.90;;;;;;4958142;28;20038;-78
2022/05/04 05:50:29;;;;;;;26.52;14.27;;;10.30;99.90;;;;;;4958897;28;20177;-77
2022/05/04 05:52:56;;;;;;;25.55;14.15;;;10.30;99.90;;;;;;4962816;28;20027;-77
2022/05/04 05:55:22;;;;;;;25.33;13.93;;;10.30;99.90;;;;;;4966199;28;20118;-77
2022/05/04 05:57:47;;;;;;;27.75;14.55;;;10.40;99.90;;;;;;4966834;28;20118;-77
2022/05/04 06:00:14;;;;;;;20.98;13.50;;;10.30;99.90;;;;;;4958571;28;20049;-77
2022/05/04 06:02:39;;;;;;;23.20;14.73;;;10.40;99.90;;;;;;4958700;28;20035;-77
2022/05/04 06:05:06;;;;;;;21.35;14.63;;;10.40;99.90;;;;;;4956315;28;20020;-78
2022/05/04 06:07:31;;;;;;;25.05;14.60;;;10.50;99.90;;;;;;4956074;28;20308;-77
2022/05/04 06:09:57;;;;;;;22.02;14.77;;;10.60;99.90;;;;;;4956405;28;20046;-78
2022/05/04 06:12:22;;;;;;;27.08;14.88;;;10.60;99.90;;;;;;4962260;28;20686;-78
2022/05/04 06:14:48;;;;;;;24.38;14.60;;;10.60;99.90;;;;;;4966446;28;20081;-78
2022/05/04 06:17:14;;;;;;;25.75;14.60;;;10.70;99.90;;;;;;4963236;28;20031;-77
2022/05/04 06:19:39;;;;;;;27.48;14.98;;;10.70;99.90;;;;;;4964487;28;20032;-78
2022/05/04 06:22:05;;;;;;;23.73;14.52;;;10.80;99.90;;;;;;4959543;28;20037;-78
2022/05/04 06:24:31;;;;;;;21.42;12.88;;;10.80;99.90;;;;;;4963351;28;20030;-77
2022/05/04 06:26:56;;;;;;;21.25;12.82;;;10.80;99.90;;;;;;4964962;28;20035;-78
2022/05/04 06:34:06;;;;;;;23.40;13.07;;;10.90;99.90;;;;;;4960552;28;20486;-77
2022/05/04 06:34:52;;;;;;;20.38;12.10;;;10.80;99.90;;;;;;4951944;28;20034;-78
2022/05/04 06:37:17;;;;;;;20.48;12.95;;;10.70;99.90;;;;;;4953856;28;20476;-77
2022/05/04 06:39:43;;;;;;;20.42;12.88;;;10.70;99.90;;;;;;4950622;28;20531;-77
2022/05/04 06:42:09;;;;;;;19.65;12.20;;;10.80;99.90;;;;;;4957763;28;20053;-78
2022/05/04 06:44:37;;;;;;;19.23;11.52;;;10.90;99.90;;;;;;4963820;28;20515;-78
2022/05/04 06:47:03;;;;;;;17.98;11.02;;;11.20;99.90;;;;;;4954458;28;20031;-78
2022/05/04 06:49:28;;;;;;;16.42;10.70;;;11.40;99.90;;;;;;4277980;28;10000815;-78
2022/05/04 06:51:54;;;;;;;17.13;10.05;;;11.60;99.90;;;;;;4954539;28;20038;-78
2022/05/04 06:54:20;;;;;;;18.50;9.55;;;11.80;99.90;;;;;;4963511;28;20490;-78
2022/05/04 06:56:45;;;;;;;16.13;9.63;;;12.10;99.90;;;;;;4962300;28;20205;-79
2022/05/04 06:59:11;;;;;;;15.65;9.88;;;12.40;99.90;;;;;;4963321;28;20483;-79
2022/05/04 07:01:36;;;;;;;16.45;9.23;;;12.60;99.90;;;;;;4955571;28;21077;-79
2022/05/04 07:04:02;;;;;;;18.05;9.07;;;12.80;99.90;;;;;;4966287;28;20026;-79
2022/05/04 07:06:28;;;;;;;15.55;8.75;;;13.10;99.90;;;;;;4964222;28;20030;-79
2022/05/04 07:08:53;;;;;;;13.68;8.60;;;13.30;99.90;;;;;;4968381;28;20383;-80
2022/05/04 07:11:19;;;;;;;15.70;9.00;;;13.50;99.90;;;;;;4957877;28;20038;-78
2022/05/04 07:13:44;;;;;;;13.25;8.25;;;13.60;99.90;;;;;;4955166;28;20035;-78
2022/05/04 07:16:10;;;;;;;17.65;9.02;;;13.70;99.90;;;;;;4963001;28;20101;-80
2022/05/04 07:18:36;;;;;;;12.75;9.35;;;13.70;99.90;;;;;;4961490;28;20026;-80
2022/05/04 07:21:02;;;;;;;17.17;9.60;;;13.70;99.90;;;;;;4955692;28;20515;-79
2022/05/04 07:23:28;;;;;;;19.00;8.90;;;13.60;99.90;;;;;;4963403;28;20066;-80
2022/05/04 07:25:54;;;;;;;16.00;9.05;;;13.60;99.90;;;;;;4955066;28;20033;-80
2022/05/04 07:28:20;;;;;;;16.83;9.10;;;13.60;99.90;;;;;;4955831;28;20286;-80
2022/05/04 07:30:45;;;;;;;14.30;8.90;;;13.80;99.90;;;;;;4961280;28;20035;-80
2022/05/04 07:33:11;;;;;;;11.60;8.25;;;14.00;99.90;;;;;;4954382;28;20027;-79
2022/05/04 07:35:37;;;;;;;17.55;8.80;;;14.30;99.90;;;;;;4965002;28;20027;-79
2022/05/04 07:38:03;;;;;;;20.13;10.15;;;14.50;99.90;;;;;;4959962;28;20059;-80
2022/05/04 07:43:12;;;;;;;13.35;8.70;;;14.90;99.90;;;;;;4962058;28;20132;-72
2022/05/04 07:45:38;;;;;;;13.57;8.73;;;15.10;99.90;;;;;;4958227;28;20737;-72
2022/05/04 07:48:04;;;;;;;12.85;7.85;;;15.20;99.90;;;;;;4958830;28;20134;-76
2022/05/04 07:50:29;;;;;;;16.60;8.48;;;15.30;99.90;;;;;;4957437;28;20030;-73
2022/05/04 07:52:55;;;;;;;12.38;7.85;;;15.30;99.90;;;;;;4963559;28;20066;-73
2022/05/04 07:55:21;;;;;;;13.23;8.70;;;15.30;99.90;;;;;;4950992;28;20078;-73
2022/05/04 07:57:48;;;;;;;13.73;8.25;;;15.40;99.90;;;;;;4963610;28;20226;-74
2022/05/04 08:05:43;;;;;;;10.85;7.10;;;15.70;99.90;;;;;;4947895;28;20406;-73
2022/05/04 08:08:09;;;;;;;9.80;7.50;;;15.60;99.90;;;;;;4947088;28;20027;-73
2022/05/04 08:10:35;;;;;;;13.40;7.78;;;15.70;99.90;;;;;;4957872;28;20502;-75
2022/05/04 08:13:00;;;;;;;13.63;7.93;;;15.90;99.90;;;;;;4964692;28;20067;-73
2022/05/04 08:15:27;;;;;;;11.27;7.20;;;16.10;99.90;;;;;;4963090;28;20102;-72
2022/05/04 08:17:52;;;;;;;11.88;7.07;;;16.30;99.90;;;;;;4965450;28;20023;-73
2022/05/04 08:20:18;;;;;;;11.40;7.93;;;16.40;99.90;;;;;;4952210;28;20083;-73
2022/05/04 08:22:43;;;;;;;9.82;7.40;;;16.60;99.90;;;;;;4952953;28;20159;-74
2022/05/04 08:25:10;;;;;;;9.15;7.35;;;16.70;99.90;;;;;;4957573;28;20435;-73
2022/05/04 08:27:35;;;;;;;13.20;7.60;;;17.00;99.90;;;;;;4968642;28;20042;-73
2022/05/04 08:30:01;;;;;;;13.82;7.85;;;17.40;99.90;;;;;;4966006;28;20034;-75
2022/05/04 08:32:30;;;;;;;12.32;7.30;;;17.60;99.90;;;;;;4967660;28;20443;-72
2022/05/04 08:34:59;;;;;;;9.73;6.65;;;17.60;99.90;;;;;;4958675;28;20035;-73
2022/05/04 08:37:27;;;;;;;11.48;7.45;;;17.60;99.90;;;;;;4963849;28;20034;-72
2022/05/04 08:39:53;;;;;;;11.75;7.80;;;17.60;99.90;;;;;;4954537;28;20030;-74
2022/05/04 08:42:19;;;;;;;14.25;7.95;;;17.60;99.90;;;;;;4966302;28;20035;-73
2022/05/04 08:44:51;;;;;;;11.30;8.43;;;17.60;99.90;;;;;;4971500;28;20049;-74
2022/05/04 08:47:20;;;;;;;11.60;8.30;;;17.30;99.90;;;;;;4963787;28;20199;-73
2022/05/04 08:49:47;;;;;;;12.13;8.23;;;17.00;99.90;;;;;;4961204;28;20055;-73
2022/05/04 08:52:13;;;;;;;14.40;7.95;;;16.80;99.90;;;;;;4961242;28;20744;-73
2022/05/04 08:54:40;;;;;;;13.68;7.95;;;16.70;99.90;;;;;;4964856;28;20035;-73
2022/05/04 08:57:07;;;;;;;13.68;8.85;;;16.70;99.90;;;;;;4950746;29;20031;-74
2022/05/04 08:59:34;;;;;;;12.98;8.30;;;16.60;99.90;;;;;;4961019;28;20479;-74
2022/05/04 09:01:59;;;;;;;12.43;8.32;;;16.50;99.90;;;;;;4954956;28;20047;-73
2022/05/04 09:04:25;;;;;;;11.40;7.82;;;16.50;99.90;;;;;;4956875;28;20023;-73
2022/05/04 09:06:50;;;;;;;11.77;8.02;;;16.60;99.90;;;;;;4959848;28;20031;-75
2022/05/04 09:09:16;;;;;;;11.70;7.45;;;16.80;99.90;;;;;;4968960;28;20066;-73
2022/05/04 09:11:46;;;;;;;13.23;7.70;;;17.00;99.90;;;;;;4962497;28;20049;-75
2022/05/04 09:14:17;;;;;;;12.30;7.65;;;17.20;99.90;;;;;;4965543;28;20422;-73
2022/05/04 09:16:43;;;;;;;9.77;8.25;;;17.40;99.90;;;;;;4958823;28;20023;-72
2022/05/04 09:19:10;;;;;;;11.43;7.82;;;;;;;;;;4956919;28;20034;-73
2022/05/04 09:21:36;;;;;;;11.23;7.97;;;17.60;99.90;;;;;;4955128;28;20041;-75
2022/05/04 09:24:03;;;;;;;14.05;7.85;;;17.80;99.90;;;;;;4960326;28;20050;-75
2022/05/04 09:26:28;;;;;;;10.40;8.20;;;17.80;99.90;;;;;;4953828;28;20037;-75
2022/05/04 09:28:59;;;;;;;11.32;7.53;;;18.00;99.90;;;;;;4956228;28;20031;-75
2022/05/04 09:31:28;;;;;;;11.73;8.25;;;18.10;99.90;;;;;;4958692;28;20522;-75
2022/05/04 09:34:06;;;;;;;10.25;7.43;;;18.10;99.90;;;;;;4961146;28;20073;-75
2022/05/04 09:45:13;;;;;;;12.63;7.30;;;18.20;99.90;;;;;;4963877;28;20128;-77
2022/05/04 09:47:47;;;;;;;9.57;7.43;;;18.20;99.90;;;;;;4956544;28;20438;-78
2022/05/04 09:50:13;;;;;;;;;;;18.10;99.90;;;;;;4953980;28;20057;-77
2022/05/04 09:52:43;;;;;;;11.25;7.82;;;18.00;99.90;;;;;;4963621;28;20211;-76
2022/05/04 09:55:25;;;;;;;11.38;7.55;;;17.90;99.90;;;;;;4964257;28;20422;-76
2022/05/04 09:57:53;;;;;;;12.77;7.43;;;17.80;99.90;;;;;;4960568;28;20034;-77
2022/05/04 10:00:21;;;;;;;13.52;7.88;;;17.60;99.90;;;;;;4959416;28;20058;-79
2022/05/04 10:02:51;;;;;;;12.30;8.48;;;17.60;99.90;;;;;;4956621;28;20027;-79
2022/05/04 10:05:17;;;;;;;13.02;8.13;;;17.50;99.90;;;;;;4963915;28;20042;-79
2022/05/04 10:07:43;;;;;;;10.27;7.90;;;17.40;99.90;;;;;;4965049;28;20031;-80
2022/05/04 10:10:11;;;;;;;12.70;8.48;;;17.30;99.90;;;;;;4951537;28;20589;-80
2022/05/04 10:12:42;;;;;;;12.98;8.25;;;17.30;99.90;;;;;;4964579;28;20069;-79
2022/05/04 10:15:11;;;;;;;11.60;7.97;;;17.30;99.90;;;;;;4959024;28;20045;-80
2022/05/04 10:18:03;;;;;;;11.45;8.25;;;17.30;99.90;;;;;;4961946;28;20015;-80
2022/05/04 10:20:41;;;;;;;14.02;9.02;;;17.20;99.90;;;;;;4953896;28;20578;-79
2022/05/04 10:23:16;;;;;;;12.98;9.13;;;17.20;99.90;;;;;;4965978;28;20351;-78
2022/05/04 10:25:42;;;;;;;13.30;9.75;;;17.20;99.90;;;;;;4963509;28;20114;-78
2022/05/04 10:28:12;;;;;;;16.00;9.82;;;17.20;99.90;;;;;;4959236;28;20255;-77
2022/05/04 10:30:55;;;;;;;13.95;9.90;;;17.10;99.90;;;;;;4957932;28;20023;-78
2022/05/04 10:33:35;;;;;;;14.00;9.55;;;16.90;99.90;;;;;;4958665;28;20423;-77
2022/05/04 10:36:26;;;;;;;13.75;9.02;;;16.80;99.90;;;;;;4958766;28;20031;-78
2022/05/04 10:38:56;;;;;;;13.27;9.43;;;16.90;99.90;;;;;;4957740;28;20031;-77
2022/05/04 10:41:38;;;;;;;16.80;10.02;;;16.80;99.90;;;;;;4964422;28;20057;-77
2022/05/04 10:44:09;;;;;;;16.67;9.93;;;16.80;99.90;;;;;;4960522;28;20026;-77
2022/05/04 10:46:38;;;;;;;11.55;10.05;;;16.70;99.90;;;;;;4960596;28;20545;-77
2022/05/04 10:49:07;;;;;;;16.35;9.93;;;16.70;99.90;;;;;;4958493;28;20419;-77
2022/05/04 10:51:46;;;;;;;14.05;9.63;;;16.50;99.90;;;;;;4958115;28;20120;-77
2022/05/04 10:54:18;;;;;;;16.70;10.98;;;16.50;99.90;;;;;;4953290;28;20065;-75
2022/05/04 10:56:49;;;;;;;17.80;10.27;;;16.50;99.90;;;;;;4955945;28;20484;-75
2022/05/04 10:59:34;;;;;;;17.95;9.80;;;16.40;99.90;;;;;;4954044;28;20406;-75
2022/05/04 11:02:09;;;;;;;13.48;10.60;;;16.30;99.90;;;;;;4964353;28;20125;-78
2022/05/04 11:04:35;;;;;;;13.25;10.02;;;16.30;99.90;;;;;;4959666;28;20080;-79
2022/05/04 11:07:04;;;;;;;11.95;9.63;;;16.20;99.90;;;;;;4957367;28;20030;-78
2022/05/04 11:09:38;;;;;;;16.30;10.23;;;16.20;99.90;;;;;;4955311;28;20092;-79
2022/05/04 11:12:05;;;;;;;13.80;9.68;;;16.10;99.90;;;;;;4955501;28;20055;-78
2022/05/04 11:14:33;;;;;;;13.80;10.25;;;16.00;99.90;;;;;;4956241;28;20034;-78
2022/05/04 11:17:00;;;;;;;14.05;10.10;;;16.10;99.90;;;;;;4960295;28;20038;-79
2022/05/04 11:19:28;;;;;;;13.82;10.20;;;16.20;99.90;;;;;;4959900;28;20026;-79
2022/05/04 11:21:55;;;;;;;13.88;9.80;;;16.20;99.90;;;;;;4958776;28;20510;-81
2022/05/04 11:24:21;;;;;;;13.05;9.88;;;16.20;99.90;;;;;;4956317;28;20058;-80
2022/05/04 11:26:50;;;;;;;15.05;9.90;;;16.30;99.90;;;;;;4610713;28;10000459;-79
2022/05/04 11:29:23;;;;;;;14.32;10.13;;;16.40;99.90;;;;;;4956781;28;20039;-78
2022/05/04 11:31:56;;;;;;;13.07;9.32;;;16.70;99.90;;;;;;4944141;28;20555;-79
2022/05/04 11:34:33;;;;;;;13.93;9.85;;;16.80;99.90;;;;;;4946253;28;20573;-76
2022/05/04 11:37:11;;;;;;;13.50;9.55;;;17.10;99.90;;;;;;4947369;28;20058;-75
2022/05/04 11:39:38;;;;;;;14.50;9.93;;;17.50;99.90;;;;;;4950390;28;20039;-76
2022/05/04 11:42:05;;;;;;;16.90;9.38;;;17.80;99.90;;;;;;4953222;28;20030;-77
2022/05/04 11:44:31;;;;;;;11.65;9.00;;;18.10;99.90;;;;;;4958314;28;20077;-75
2022/05/04 11:46:58;;;;;;;12.45;9.63;;;18.30;99.90;;;;;;4955861;28;20578;-75
2022/05/04 11:49:27;;;;;;;10.77;8.70;;;18.40;99.90;;;;;;4943238;28;20503;-74
2022/05/04 11:51:55;;;;;;;15.95;9.70;;;18.50;99.90;;;;;;4942298;28;20057;-75
2022/05/04 11:54:21;;;;;;;13.40;9.82;;;18.70;99.90;;;;;;4947577;28;20054;-77
2022/05/04 11:56:47;;;;;;;16.48;9.25;;;18.90;99.90;;;;;;4955659;28;20026;-75
2022/05/04 11:59:13;;;;;;;13.43;8.82;;;19.20;99.90;;;;;;4956744;28;20026;-75
2022/05/04 12:01:40;;;;;;;11.80;8.93;;;19.40;99.90;;;;;;4952438;28;20558;-75
2022/05/04 12:04:08;;;;;;;15.82;9.95;;;19.70;99.90;;;;;;4960923;28;20105;-74
2022/05/04 12:06:34;;;;;;;14.95;9.55;;;19.40;99.90;;;;;;4960707;28;20034;-73
2022/05/04 12:09:02;;;;;;;14.48;9.07;;;19.40;99.90;;;;;;4956018;28;20023;-74
2022/05/04 12:11:28;;;;;;;13.80;9.98;;;19.50;99.90;;;;;;4962241;28;20031;-76
2022/05/04 12:13:56;;;;;;;17.00;10.45;;;19.50;99.90;;;;;;4951867;28;20042;-75
2022/05/04 12:16:23;;;;;;;14.13;10.68;;;19.20;99.90;;;;;;4963405;28;20034;-74
2022/05/04 12:18:49;;;;;;;11.80;9.68;;;19.00;99.90;;;;;;4959418;28;20023;-75
2022/05/04 12:21:19;;;;;;;13.25;10.18;;;19.00;99.90;;;;;;4952825;28;20549;-73
2022/05/04 12:23:48;;;;;;;12.30;9.73;;;19.10;99.90;;;;;;4958902;28;20046;-75
2022/05/04 12:26:15;;;;;;;13.90;10.05;;;19.00;99.90;;;;;;4956735;28;20101;-75
2022/05/04 12:34:16;;;;;;;15.23;10.20;;;19.10;99.90;;;;;;4956416;28;20594;-74
2022/05/04 12:36:45;;;;;;;13.77;10.52;;;19.00;99.90;;;;;;4963796;28;20364;-74
2022/05/04 12:39:11;;;;;;;13.30;9.55;;;18.90;99.90;;;;;;4949795;28;20035;-75
2022/05/04 12:41:37;;;;;;;15.68;10.45;;;18.80;99.90;;;;;;4956090;28;20073;-74
2022/05/04 12:44:06;;;;;;;14.77;10.30;;;18.90;99.90;;;;;;4960249;28;20035;-75
2022/05/04 12:46:32;;;;;;;13.63;10.90;;;18.80;99.90;;;;;;4965090;28;20026;-76
2022/05/04 12:48:58;;;;;;;13.50;9.73;;;18.80;99.90;;;;;;4955856;28;20175;-75
2022/05/04 12:51:24;;;;;;;17.25;9.85;;;18.70;99.90;;;;;;4958969;28;20031;-78
2022/05/04 12:53:51;;;;;;;11.55;8.80;;;18.80;99.90;;;;;;4959267;28;20038;-75
2022/05/04 12:59:03;;;;;;;9.85;8.10;;;18.80;99.90;;;;;;4960977;28;20041;-76
2022/05/04 13:01:31;;;;;;;11.93;8.88;;;18.80;99.90;;;;;;4964247;28;20062;-77
2022/05/04 13:03:58;;;;;;;12.80;9.00;;;18.90;99.90;;;;;;4965742;28;20031;-78
2022/05/04 13:06:23;;;;;;;15.15;9.27;;;18.90;99.90;;;;;;4962026;28;20086;-77
2022/05/04 13:08:50;;;;;;;12.00;8.65;;;18.90;99.90;;;;;;4961741;28;20038;-80
2022/05/04 13:11:16;;;;;;;11.77;8.63;;;18.90;99.90;;;;;;4957933;28;20448;-78
2022/05/04 13:13:42;;;;;;;15.60;9.82;;;19.10;99.90;;;;;;4962797;28;20023;-74
2022/05/04 13:16:08;;;;;;;14.20;9.52;;;19.30;99.90;;;;;;4951516;28;21041;-76